sensor_id;sensor_type;location;lat;lon;timestamp;P1;durP1;ratioP1;P2;durP2;ratioP2
21243;SDS011;10780;50.942;4.028;2023-07-13T00:02:22;10.35;;;2.40;;
21243;SDS011;10780;50.942;4.028;2023-07-13T00:04:48;7.93;;;2.13;;
21243;SDS011;10780;50.942;4.028;2023-07-13T00:07:14;5.90;;;1.83;;
21243;SDS011;10780;50.942;4.028;2023-07-13T00:09:40;7.15;;;2.40;;
21243;SDS011;10780;50.942;4.028;2023-07-13T00:12:19;8.07;;;2.40;;
21243;SDS011;10780;50.942;4.028;2023-07-13T00:14:57;6.13;;;2.20;;
21243;SDS011;10780;50.942;4.028;2023-07-13T00:17:25;9.65;;;2.40;;
21243;SDS011;10780;50.942;4.028;2023-07-13T00:19:52;6.47;;;2.63;;
21243;SDS011;10780;50.942;4.028;2023-07-13T00:22:18;10.60;;;2.47;;
21243;SDS011;10780;50.942;4.028;2023-07-13T00:24:44;9.18;;;2.03;;
21243;SDS011;10780;50.942;4.028;2023-07-13T00:27:10;9.43;;;2.75;;
21243;SDS011;10780;50.942;4.028;2023-07-13T00:29:36;6.60;;;2.30;;
21243;SDS011;10780;50.942;4.028;2023-07-13T00:32:03;8.38;;;2.20;;
21243;SDS011;10780;50.942;4.028;2023-07-13T00:34:29;6.82;;;2.22;;
21243;SDS011;10780;50.942;4.028;2023-07-13T00:36:55;7.10;;;2.17;;
21243;SDS011;10780;50.942;4.028;2023-07-13T00:39:21;11.35;;;2.47;;
21243;SDS011;10780;50.942;4.028;2023-07-13T00:41:47;5.55;;;2.25;;
21243;SDS011;10780;50.942;4.028;2023-07-13T00:44:14;11.40;;;2.90;;
21243;SDS011;10780;50.942;4.028;2023-07-13T00:46:40;7.65;;;2.72;;
21243;SDS011;10780;50.942;4.028;2023-07-13T00:49:07;6.25;;;2.55;;
21243;SDS011;10780;50.942;4.028;2023-07-13T00:51:39;8.70;;;2.30;;
21243;SDS011;10780;50.942;4.028;2023-07-13T00:54:10;7.00;;;2.15;;
21243;SDS011;10780;50.942;4.028;2023-07-13T00:56:39;7.05;;;2.30;;
21243;SDS011;10780;50.942;4.028;2023-07-13T00:59:08;8.75;;;2.47;;
21243;SDS011;10780;50.942;4.028;2023-07-13T01:01:36;10.52;;;2.88;;
21243;SDS011;10780;50.942;4.028;2023-07-13T01:04:03;8.15;;;2.80;;
21243;SDS011;10780;50.942;4.028;2023-07-13T01:06:32;7.88;;;2.58;;
21243;SDS011;10780;50.942;4.028;2023-07-13T01:09:02;8.75;;;2.80;;
21243;SDS011;10780;50.942;4.028;2023-07-13T01:11:28;10.45;;;2.90;;
21243;SDS011;10780;50.942;4.028;2023-07-13T01:13:54;8.43;;;2.88;;
21243;SDS011;10780;50.942;4.028;2023-07-13T01:16:22;9.52;;;2.83;;
21243;SDS011;10780;50.942;4.028;2023-07-13T01:18:51;8.82;;;2.75;;
21243;SDS011;10780;50.942;4.028;2023-07-13T01:21:16;8.13;;;2.60;;
21243;SDS011;10780;50.942;4.028;2023-07-13T01:23:43;4.78;;;2.30;;
21243;SDS011;10780;50.942;4.028;2023-07-13T01:26:09;9.63;;;2.90;;
21243;SDS011;10780;50.942;4.028;2023-07-13T01:28:36;9.68;;;3.03;;
21243;SDS011;10780;50.942;4.028;2023-07-13T01:31:03;6.78;;;2.65;;
21243;SDS011;10780;50.942;4.028;2023-07-13T01:33:28;7.07;;;2.45;;
21243;SDS011;10780;50.942;4.028;2023-07-13T01:35:54;8.52;;;2.92;;
21243;SDS011;10780;50.942;4.028;2023-07-13T01:38:22;7.68;;;2.92;;
21243;SDS011;10780;50.942;4.028;2023-07-13T01:40:50;9.43;;;2.75;;
21243;SDS011;10780;50.942;4.028;2023-07-13T01:43:16;10.80;;;3.08;;
21243;SDS011;10780;50.942;4.028;2023-07-13T01:45:42;14.90;;;3.53;;
21243;SDS011;10780;50.942;4.028;2023-07-13T01:48:09;10.35;;;2.95;;
21243;SDS011;10780;50.942;4.028;2023-07-13T01:50:35;7.85;;;2.85;;
21243;SDS011;10780;50.942;4.028;2023-07-13T01:53:01;8.68;;;3.20;;
21243;SDS011;10780;50.942;4.028;2023-07-13T01:55:27;10.05;;;3.20;;
21243;SDS011;10780;50.942;4.028;2023-07-13T01:57:53;8.25;;;2.92;;
21243;SDS011;10780;50.942;4.028;2023-07-13T02:00:19;7.95;;;2.70;;
21243;SDS011;10780;50.942;4.028;2023-07-13T02:02:44;7.90;;;2.90;;
21243;SDS011;10780;50.942;4.028;2023-07-13T02:05:10;8.35;;;3.03;;
21243;SDS011;10780;50.942;4.028;2023-07-13T02:07:37;9.48;;;2.90;;
21243;SDS011;10780;50.942;4.028;2023-07-13T02:10:04;8.13;;;2.67;;
21243;SDS011;10780;50.942;4.028;2023-07-13T02:12:31;9.35;;;3.97;;
21243;SDS011;10780;50.942;4.028;2023-07-13T02:14:56;8.95;;;2.95;;
21243;SDS011;10780;50.942;4.028;2023-07-13T02:17:22;14.27;;;3.83;;
21243;SDS011;10780;50.942;4.028;2023-07-13T02:19:47;11.60;;;3.10;;
21243;SDS011;10780;50.942;4.028;2023-07-13T02:22:13;9.98;;;3.03;;
21243;SDS011;10780;50.942;4.028;2023-07-13T02:24:39;7.38;;;2.50;;
21243;SDS011;10780;50.942;4.028;2023-07-13T02:27:05;9.40;;;2.78;;
21243;SDS011;10780;50.942;4.028;2023-07-13T02:29:31;9.15;;;2.95;;
21243;SDS011;10780;50.942;4.028;2023-07-13T02:31:56;15.10;;;3.70;;
21243;SDS011;10780;50.942;4.028;2023-07-13T02:34:22;8.55;;;3.22;;
21243;SDS011;10780;50.942;4.028;2023-07-13T02:36:47;5.30;;;2.70;;
21243;SDS011;10780;50.942;4.028;2023-07-13T02:39:13;6.55;;;2.60;;
21243;SDS011;10780;50.942;4.028;2023-07-13T02:41:39;9.07;;;2.40;;
21243;SDS011;10780;50.942;4.028;2023-07-13T02:44:05;12.98;;;3.22;;
21243;SDS011;10780;50.942;4.028;2023-07-13T02:46:31;9.05;;;2.95;;
21243;SDS011;10780;50.942;4.028;2023-07-13T02:48:57;7.55;;;2.88;;
21243;SDS011;10780;50.942;4.028;2023-07-13T02:51:23;7.50;;;2.58;;
21243;SDS011;10780;50.942;4.028;2023-07-13T02:53:49;5.65;;;2.72;;
21243;SDS011;10780;50.942;4.028;2023-07-13T02:56:14;10.73;;;2.92;;
21243;SDS011;10780;50.942;4.028;2023-07-13T02:58:40;5.00;;;2.60;;
21243;SDS011;10780;50.942;4.028;2023-07-13T03:01:07;5.38;;;2.40;;
21243;SDS011;10780;50.942;4.028;2023-07-13T03:03:34;11.43;;;3.70;;
21243;SDS011;10780;50.942;4.028;2023-07-13T03:06:01;8.45;;;3.03;;
21243;SDS011;10780;50.942;4.028;2023-07-13T03:08:28;8.20;;;3.10;;
21243;SDS011;10780;50.942;4.028;2023-07-13T03:11:27;9.02;;;2.78;;
21243;SDS011;10780;50.942;4.028;2023-07-13T03:13:46;6.82;;;2.78;;
21243;SDS011;10780;50.942;4.028;2023-07-13T03:16:12;15.82;;;3.88;;
21243;SDS011;10780;50.942;4.028;2023-07-13T03:18:39;7.32;;;2.50;;
21243;SDS011;10780;50.942;4.028;2023-07-13T03:21:04;5.22;;;3.13;;
21243;SDS011;10780;50.942;4.028;2023-07-13T03:23:30;7.15;;;3.30;;
21243;SDS011;10780;50.942;4.028;2023-07-13T03:26:06;5.43;;;2.53;;
21243;SDS011;10780;50.942;4.028;2023-07-13T03:28:38;11.27;;;3.33;;
21243;SDS011;10780;50.942;4.028;2023-07-13T03:31:11;8.35;;;2.97;;
21243;SDS011;10780;50.942;4.028;2023-07-13T03:33:40;7.78;;;2.95;;
21243;SDS011;10780;50.942;4.028;2023-07-13T03:36:06;9.23;;;3.20;;
21243;SDS011;10780;50.942;4.028;2023-07-13T03:38:35;8.25;;;3.13;;
21243;SDS011;10780;50.942;4.028;2023-07-13T03:41:01;8.15;;;3.25;;
21243;SDS011;10780;50.942;4.028;2023-07-13T03:43:26;10.90;;;4.20;;
21243;SDS011;10780;50.942;4.028;2023-07-13T03:45:52;11.27;;;3.42;;
21243;SDS011;10780;50.942;4.028;2023-07-13T03:48:18;7.97;;;2.83;;
21243;SDS011;10780;50.942;4.028;2023-07-13T03:50:43;7.50;;;2.90;;
21243;SDS011;10780;50.942;4.028;2023-07-13T03:53:09;11.00;;;2.90;;
21243;SDS011;10780;50.942;4.028;2023-07-13T03:55:35;7.97;;;3.17;;
21243;SDS011;10780;50.942;4.028;2023-07-13T03:58:05;9.05;;;2.80;;
21243;SDS011;10780;50.942;4.028;2023-07-13T04:00:51;5.47;;;2.58;;
21243;SDS011;10780;50.942;4.028;2023-07-13T04:03:17;11.45;;;3.00;;
21243;SDS011;10780;50.942;4.028;2023-07-13T04:05:43;9.75;;;3.60;;
21243;SDS011;10780;50.942;4.028;2023-07-13T04:08:08;12.43;;;3.58;;
21243;SDS011;10780;50.942;4.028;2023-07-13T04:10:34;9.75;;;3.50;;
21243;SDS011;10780;50.942;4.028;2023-07-13T04:13:00;8.68;;;3.40;;
21243;SDS011;10780;50.942;4.028;2023-07-13T04:15:26;10.13;;;3.42;;
21243;SDS011;10780;50.942;4.028;2023-07-13T04:17:55;7.05;;;3.08;;
21243;SDS011;10780;50.942;4.028;2023-07-13T04:20:20;5.95;;;3.47;;
21243;SDS011;10780;50.942;4.028;2023-07-13T04:22:46;13.55;;;3.60;;
21243;SDS011;10780;50.942;4.028;2023-07-13T04:25:12;10.95;;;4.28;;
21243;SDS011;10780;50.942;4.028;2023-07-13T04:27:38;13.93;;;4.07;;
21243;SDS011;10780;50.942;4.028;2023-07-13T04:30:05;8.55;;;3.45;;
21243;SDS011;10780;50.942;4.028;2023-07-13T04:32:31;7.25;;;2.97;;
21243;SDS011;10780;50.942;4.028;2023-07-13T04:34:57;8.57;;;3.40;;
21243;SDS011;10780;50.942;4.028;2023-07-13T04:37:24;10.88;;;3.83;;
21243;SDS011;10780;50.942;4.028;2023-07-13T04:39:50;9.80;;;3.10;;
21243;SDS011;10780;50.942;4.028;2023-07-13T04:42:16;10.23;;;3.33;;
21243;SDS011;10780;50.942;4.028;2023-07-13T04:44:46;12.70;;;3.70;;
21243;SDS011;10780;50.942;4.028;2023-07-13T04:47:16;9.07;;;3.47;;
21243;SDS011;10780;50.942;4.028;2023-07-13T04:49:42;10.00;;;3.40;;
21243;SDS011;10780;50.942;4.028;2023-07-13T04:52:09;9.50;;;3.47;;
21243;SDS011;10780;50.942;4.028;2023-07-13T04:54:34;11.40;;;3.50;;
21243;SDS011;10780;50.942;4.028;2023-07-13T04:57:00;8.30;;;3.13;;
21243;SDS011;10780;50.942;4.028;2023-07-13T04:59:26;7.25;;;3.13;;
21243;SDS011;10780;50.942;4.028;2023-07-13T05:01:52;10.38;;;3.80;;
21243;SDS011;10780;50.942;4.028;2023-07-13T05:04:18;9.98;;;3.53;;
21243;SDS011;10780;50.942;4.028;2023-07-13T05:06:44;14.05;;;3.88;;
21243;SDS011;10780;50.942;4.028;2023-07-13T05:09:10;12.60;;;3.42;;
21243;SDS011;10780;50.942;4.028;2023-07-13T05:11:35;9.82;;;3.50;;
21243;SDS011;10780;50.942;4.028;2023-07-13T05:14:01;11.88;;;3.72;;
21243;SDS011;10780;50.942;4.028;2023-07-13T05:16:27;10.00;;;3.38;;
21243;SDS011;10780;50.942;4.028;2023-07-13T05:18:53;11.43;;;3.70;;
21243;SDS011;10780;50.942;4.028;2023-07-13T05:21:18;10.68;;;3.30;;
21243;SDS011;10780;50.942;4.028;2023-07-13T05:23:44;12.10;;;3.80;;
21243;SDS011;10780;50.942;4.028;2023-07-13T05:26:10;14.13;;;3.67;;
21243;SDS011;10780;50.942;4.028;2023-07-13T05:28:37;13.63;;;3.58;;
21243;SDS011;10780;50.942;4.028;2023-07-13T05:31:03;9.23;;;2.97;;
21243;SDS011;10780;50.942;4.028;2023-07-13T05:33:29;14.10;;;3.88;;
21243;SDS011;10780;50.942;4.028;2023-07-13T05:35:55;15.00;;;4.22;;
21243;SDS011;10780;50.942;4.028;2023-07-13T05:38:21;11.68;;;3.95;;
21243;SDS011;10780;50.942;4.028;2023-07-13T05:40:47;10.52;;;3.65;;
21243;SDS011;10780;50.942;4.028;2023-07-13T05:43:13;9.32;;;3.28;;
21243;SDS011;10780;50.942;4.028;2023-07-13T05:45:39;11.73;;;3.45;;
21243;SDS011;10780;50.942;4.028;2023-07-13T05:48:05;12.07;;;3.80;;
21243;SDS011;10780;50.942;4.028;2023-07-13T05:50:30;11.88;;;4.10;;
21243;SDS011;10780;50.942;4.028;2023-07-13T05:52:56;12.70;;;3.78;;
21243;SDS011;10780;50.942;4.028;2023-07-13T05:55:22;9.65;;;3.42;;
21243;SDS011;10780;50.942;4.028;2023-07-13T05:57:48;10.85;;;3.78;;
21243;SDS011;10780;50.942;4.028;2023-07-13T06:00:13;12.88;;;3.83;;
21243;SDS011;10780;50.942;4.028;2023-07-13T06:02:40;9.18;;;3.38;;
21243;SDS011;10780;50.942;4.028;2023-07-13T06:05:05;12.05;;;3.80;;
21243;SDS011;10780;50.942;4.028;2023-07-13T06:07:31;10.13;;;3.60;;
21243;SDS011;10780;50.942;4.028;2023-07-13T06:09:57;11.50;;;3.67;;
21243;SDS011;10780;50.942;4.028;2023-07-13T06:12:24;12.00;;;3.63;;
21243;SDS011;10780;50.942;4.028;2023-07-13T06:14:50;11.07;;;3.58;;
21243;SDS011;10780;50.942;4.028;2023-07-13T06:17:15;10.77;;;3.78;;
21243;SDS011;10780;50.942;4.028;2023-07-13T06:19:44;10.05;;;3.40;;
21243;SDS011;10780;50.942;4.028;2023-07-13T06:22:09;8.15;;;3.25;;
21243;SDS011;10780;50.942;4.028;2023-07-13T06:24:35;10.27;;;3.30;;
21243;SDS011;10780;50.942;4.028;2023-07-13T06:27:00;11.18;;;3.65;;
21243;SDS011;10780;50.942;4.028;2023-07-13T06:29:26;16.17;;;3.90;;
21243;SDS011;10780;50.942;4.028;2023-07-13T06:31:52;7.45;;;2.97;;
21243;SDS011;10780;50.942;4.028;2023-07-13T06:34:18;11.25;;;3.83;;
21243;SDS011;10780;50.942;4.028;2023-07-13T06:36:43;8.88;;;3.65;;
21243;SDS011;10780;50.942;4.028;2023-07-13T06:39:09;12.90;;;3.47;;
21243;SDS011;10780;50.942;4.028;2023-07-13T06:41:35;13.63;;;4.20;;
21243;SDS011;10780;50.942;4.028;2023-07-13T06:44:00;11.85;;;4.00;;
21243;SDS011;10780;50.942;4.028;2023-07-13T06:46:28;11.85;;;3.75;;
21243;SDS011;10780;50.942;4.028;2023-07-13T06:48:55;8.05;;;3.00;;
21243;SDS011;10780;50.942;4.028;2023-07-13T06:51:21;9.05;;;3.42;;
21243;SDS011;10780;50.942;4.028;2023-07-13T06:53:47;13.05;;;3.72;;
21243;SDS011;10780;50.942;4.028;2023-07-13T06:56:12;7.90;;;3.63;;
21243;SDS011;10780;50.942;4.028;2023-07-13T06:58:38;9.10;;;3.88;;
21243;SDS011;10780;50.942;4.028;2023-07-13T07:01:04;9.38;;;3.35;;
21243;SDS011;10780;50.942;4.028;2023-07-13T07:03:30;12.65;;;3.70;;
21243;SDS011;10780;50.942;4.028;2023-07-13T07:06:16;15.32;;;3.92;;
21243;SDS011;10780;50.942;4.028;2023-07-13T07:08:43;10.23;;;3.67;;
21243;SDS011;10780;50.942;4.028;2023-07-13T07:11:12;8.15;;;3.25;;
21243;SDS011;10780;50.942;4.028;2023-07-13T07:13:39;14.48;;;3.67;;
21243;SDS011;10780;50.942;4.028;2023-07-13T07:16:05;12.35;;;4.47;;
21243;SDS011;10780;50.942;4.028;2023-07-13T07:18:30;10.20;;;5.10;;
21243;SDS011;10780;50.942;4.028;2023-07-13T07:20:56;7.80;;;3.60;;
21243;SDS011;10780;50.942;4.028;2023-07-13T07:23:22;16.30;;;5.55;;
21243;SDS011;10780;50.942;4.028;2023-07-13T07:25:47;9.30;;;4.13;;
21243;SDS011;10780;50.942;4.028;2023-07-13T07:28:14;12.63;;;3.78;;
21243;SDS011;10780;50.942;4.028;2023-07-13T07:30:43;11.52;;;3.28;;
21243;SDS011;10780;50.942;4.028;2023-07-13T07:33:09;9.63;;;3.28;;
21243;SDS011;10780;50.942;4.028;2023-07-13T07:35:35;7.90;;;2.83;;
21243;SDS011;10780;50.942;4.028;2023-07-13T07:38:01;10.27;;;3.50;;
21243;SDS011;10780;50.942;4.028;2023-07-13T07:40:27;10.23;;;3.28;;
21243;SDS011;10780;50.942;4.028;2023-07-13T07:42:53;7.75;;;3.22;;
21243;SDS011;10780;50.942;4.028;2023-07-13T07:45:19;9.60;;;3.10;;
21243;SDS011;10780;50.942;4.028;2023-07-13T07:47:45;11.63;;;4.30;;
21243;SDS011;10780;50.942;4.028;2023-07-13T07:50:11;10.27;;;3.65;;
21243;SDS011;10780;50.942;4.028;2023-07-13T07:52:38;10.63;;;3.72;;
21243;SDS011;10780;50.942;4.028;2023-07-13T07:55:04;7.20;;;2.90;;
21243;SDS011;10780;50.942;4.028;2023-07-13T07:57:30;10.00;;;3.53;;
21243;SDS011;10780;50.942;4.028;2023-07-13T07:59:56;8.70;;;3.47;;
21243;SDS011;10780;50.942;4.028;2023-07-13T08:02:22;10.30;;;3.42;;
21243;SDS011;10780;50.942;4.028;2023-07-13T08:04:47;8.15;;;3.42;;
21243;SDS011;10780;50.942;4.028;2023-07-13T08:07:13;8.70;;;3.17;;
21243;SDS011;10780;50.942;4.028;2023-07-13T08:09:39;6.72;;;2.65;;
21243;SDS011;10780;50.942;4.028;2023-07-13T08:12:04;9.07;;;3.75;;
21243;SDS011;10780;50.942;4.028;2023-07-13T08:14:30;12.43;;;3.83;;
21243;SDS011;10780;50.942;4.028;2023-07-13T08:16:56;7.72;;;3.10;;
21243;SDS011;10780;50.942;4.028;2023-07-13T08:19:21;11.18;;;4.20;;
21243;SDS011;10780;50.942;4.028;2023-07-13T08:21:47;8.30;;;3.28;;
21243;SDS011;10780;50.942;4.028;2023-07-13T08:24:14;7.75;;;2.85;;
21243;SDS011;10780;50.942;4.028;2023-07-13T08:26:39;11.90;;;3.38;;
21243;SDS011;10780;50.942;4.028;2023-07-13T08:29:05;9.80;;;3.15;;
21243;SDS011;10780;50.942;4.028;2023-07-13T08:31:31;8.63;;;3.20;;
21243;SDS011;10780;50.942;4.028;2023-07-13T08:33:57;10.68;;;3.30;;
21243;SDS011;10780;50.942;4.028;2023-07-13T08:36:22;6.82;;;2.92;;
21243;SDS011;10780;50.942;4.028;2023-07-13T08:38:48;9.50;;;3.17;;
21243;SDS011;10780;50.942;4.028;2023-07-13T08:41:15;10.93;;;2.92;;
21243;SDS011;10780;50.942;4.028;2023-07-13T08:43:42;6.93;;;3.03;;
21243;SDS011;10780;50.942;4.028;2023-07-13T08:46:17;7.47;;;2.72;;
21243;SDS011;10780;50.942;4.028;2023-07-13T08:49:04;9.93;;;3.13;;
21243;SDS011;10780;50.942;4.028;2023-07-13T08:51:38;8.35;;;3.10;;
21243;SDS011;10780;50.942;4.028;2023-07-13T08:54:16;5.47;;;2.83;;
21243;SDS011;10780;50.942;4.028;2023-07-13T08:56:53;7.63;;;2.80;;
21243;SDS011;10780;50.942;4.028;2023-07-13T08:59:20;6.97;;;2.70;;
21243;SDS011;10780;50.942;4.028;2023-07-13T09:04:23;5.05;;;2.40;;
21243;SDS011;10780;50.942;4.028;2023-07-13T09:07:07;5.88;;;3.05;;
21243;SDS011;10780;50.942;4.028;2023-07-13T09:09:57;6.28;;;2.88;;
21243;SDS011;10780;50.942;4.028;2023-07-13T09:15:17;5.13;;;2.70;;
21243;SDS011;10780;50.942;4.028;2023-07-13T09:17:57;6.18;;;2.90;;
21243;SDS011;10780;50.942;4.028;2023-07-13T09:20:48;6.72;;;2.65;;
21243;SDS011;10780;50.942;4.028;2023-07-13T09:23:19;7.32;;;2.63;;
21243;SDS011;10780;50.942;4.028;2023-07-13T09:25:53;5.07;;;2.60;;
21243;SDS011;10780;50.942;4.028;2023-07-13T09:28:26;6.70;;;2.70;;
21243;SDS011;10780;50.942;4.028;2023-07-13T09:30:58;6.38;;;2.60;;
21243;SDS011;10780;50.942;4.028;2023-07-13T09:33:29;7.15;;;2.60;;
21243;SDS011;10780;50.942;4.028;2023-07-13T09:35:56;9.80;;;3.20;;
21243;SDS011;10780;50.942;4.028;2023-07-13T09:38:24;7.20;;;2.60;;
21243;SDS011;10780;50.942;4.028;2023-07-13T09:40:56;5.43;;;2.50;;
21243;SDS011;10780;50.942;4.028;2023-07-13T09:44:02;5.45;;;2.60;;
21243;SDS011;10780;50.942;4.028;2023-07-13T09:46:26;8.73;;;2.67;;
21243;SDS011;10780;50.942;4.028;2023-07-13T09:48:52;7.25;;;2.67;;
21243;SDS011;10780;50.942;4.028;2023-07-13T09:51:17;5.22;;;2.40;;
21243;SDS011;10780;50.942;4.028;2023-07-13T09:53:43;6.72;;;2.70;;
21243;SDS011;10780;50.942;4.028;2023-07-13T09:56:22;7.32;;;3.03;;
21243;SDS011;10780;50.942;4.028;2023-07-13T09:58:51;5.03;;;2.15;;
21243;SDS011;10780;50.942;4.028;2023-07-13T10:01:21;5.38;;;2.70;;
21243;SDS011;10780;50.942;4.028;2023-07-13T10:04:12;5.60;;;2.42;;
21243;SDS011;10780;50.942;4.028;2023-07-13T10:06:38;5.72;;;2.67;;
21243;SDS011;10780;50.942;4.028;2023-07-13T10:09:08;6.43;;;2.45;;
21243;SDS011;10780;50.942;4.028;2023-07-13T10:11:35;5.18;;;2.22;;
21243;SDS011;10780;50.942;4.028;2023-07-13T10:14:16;6.43;;;2.03;;
21243;SDS011;10780;50.942;4.028;2023-07-13T10:16:45;8.10;;;2.22;;
21243;SDS011;10780;50.942;4.028;2023-07-13T10:19:16;5.53;;;2.42;;
21243;SDS011;10780;50.942;4.028;2023-07-13T10:21:52;5.20;;;2.10;;
21243;SDS011;10780;50.942;4.028;2023-07-13T10:24:24;5.13;;;2.20;;
21243;SDS011;10780;50.942;4.028;2023-07-13T10:27:03;5.65;;;2.08;;
21243;SDS011;10780;50.942;4.028;2023-07-13T10:29:37;4.32;;;2.35;;
21243;SDS011;10780;50.942;4.028;2023-07-13T10:32:24;6.35;;;2.20;;
21243;SDS011;10780;50.942;4.028;2023-07-13T10:34:50;3.45;;;2.13;;
21243;SDS011;10780;50.942;4.028;2023-07-13T10:37:24;4.13;;;2.10;;
21243;SDS011;10780;50.942;4.028;2023-07-13T10:39:53;5.18;;;1.90;;
21243;SDS011;10780;50.942;4.028;2023-07-13T10:42:28;2.95;;;1.80;;
21243;SDS011;10780;50.942;4.028;2023-07-13T10:45:00;5.25;;;1.90;;
21243;SDS011;10780;50.942;4.028;2023-07-13T10:47:26;5.47;;;2.33;;
21243;SDS011;10780;50.942;4.028;2023-07-13T10:49:53;4.15;;;2.30;;
21243;SDS011;10780;50.942;4.028;2023-07-13T11:01:17;4.85;;;1.92;;
21243;SDS011;10780;50.942;4.028;2023-07-13T11:03:47;4.45;;;1.98;;
21243;SDS011;10780;50.942;4.028;2023-07-13T11:08:53;7.18;;;1.95;;
21243;SDS011;10780;50.942;4.028;2023-07-13T11:18:50;5.90;;;1.80;;
21243;SDS011;10780;50.942;4.028;2023-07-13T11:21:18;3.17;;;1.83;;
21243;SDS011;10780;50.942;4.028;2023-07-13T11:23:52;4.40;;;1.77;;
21243;SDS011;10780;50.942;4.028;2023-07-13T11:32:01;8.80;;;2.63;;
21243;SDS011;10780;50.942;4.028;2023-07-13T11:34:46;3.25;;;1.65;;
21243;SDS011;10780;50.942;4.028;2023-07-13T11:37:13;13.80;;;3.75;;
21243;SDS011;10780;50.942;4.028;2023-07-13T11:39:42;7.70;;;2.90;;
21243;SDS011;10780;50.942;4.028;2023-07-13T11:42:14;6.35;;;2.38;;
21243;SDS011;10780;50.942;4.028;2023-07-13T11:44:51;7.78;;;2.75;;
21243;SDS011;10780;50.942;4.028;2023-07-13T11:47:20;7.18;;;3.03;;
21243;SDS011;10780;50.942;4.028;2023-07-13T11:49:54;6.95;;;2.75;;
21243;SDS011;10780;50.942;4.028;2023-07-13T11:52:42;5.32;;;2.53;;
21243;SDS011;10780;50.942;4.028;2023-07-13T11:55:13;7.75;;;3.15;;
21243;SDS011;10780;50.942;4.028;2023-07-13T11:57:43;5.13;;;3.30;;
21243;SDS011;10780;50.942;4.028;2023-07-13T12:00:28;4.97;;;3.10;;
21243;SDS011;10780;50.942;4.028;2023-07-13T12:02:56;6.32;;;3.40;;
21243;SDS011;10780;50.942;4.028;2023-07-13T12:05:24;3.45;;;2.85;;
21243;SDS011;10780;50.942;4.028;2023-07-13T12:07:50;4.85;;;3.10;;
21243;SDS011;10780;50.942;4.028;2023-07-13T12:12:58;3.80;;;2.60;;
21243;SDS011;10780;50.942;4.028;2023-07-13T12:15:44;3.75;;;2.42;;
21243;SDS011;10780;50.942;4.028;2023-07-13T12:18:18;4.97;;;2.60;;
21243;SDS011;10780;50.942;4.028;2023-07-13T12:20:46;3.33;;;2.30;;
21243;SDS011;10780;50.942;4.028;2023-07-13T12:25:56;5.75;;;2.53;;
21243;SDS011;10780;50.942;4.028;2023-07-13T12:30:59;4.43;;;2.15;;
21243;SDS011;10780;50.942;4.028;2023-07-13T12:33:29;5.20;;;2.22;;
21243;SDS011;10780;50.942;4.028;2023-07-13T12:35:57;5.13;;;2.08;;
21243;SDS011;10780;50.942;4.028;2023-07-13T12:38:26;3.95;;;2.28;;
21243;SDS011;10780;50.942;4.028;2023-07-13T12:40:52;2.80;;;2.15;;
21243;SDS011;10780;50.942;4.028;2023-07-13T12:43:19;4.30;;;2.00;;
21243;SDS011;10780;50.942;4.028;2023-07-13T12:46:14;4.50;;;2.33;;
21243;SDS011;10780;50.942;4.028;2023-07-13T12:48:43;8.68;;;2.67;;
21243;SDS011;10780;50.942;4.028;2023-07-13T12:51:13;5.97;;;3.22;;
21243;SDS011;10780;50.942;4.028;2023-07-13T12:53:41;7.93;;;2.70;;
21243;SDS011;10780;50.942;4.028;2023-07-13T12:56:15;3.85;;;2.17;;
21243;SDS011;10780;50.942;4.028;2023-07-13T12:58:45;3.25;;;2.05;;
21243;SDS011;10780;50.942;4.028;2023-07-13T13:01:15;5.57;;;2.40;;
21243;SDS011;10780;50.942;4.028;2023-07-13T13:03:51;5.32;;;2.38;;
21243;SDS011;10780;50.942;4.028;2023-07-13T13:08:44;4.82;;;2.22;;
21243;SDS011;10780;50.942;4.028;2023-07-13T13:11:13;6.45;;;3.00;;
21243;SDS011;10780;50.942;4.028;2023-07-13T13:13:41;3.55;;;2.13;;
21243;SDS011;10780;50.942;4.028;2023-07-13T13:16:52;4.68;;;2.20;;
21243;SDS011;10780;50.942;4.028;2023-07-13T13:18:57;3.50;;;1.95;;
21243;SDS011;10780;50.942;4.028;2023-07-13T13:21:27;5.00;;;2.65;;
21243;SDS011;10780;50.942;4.028;2023-07-13T13:23:53;3.53;;;2.03;;
21243;SDS011;10780;50.942;4.028;2023-07-13T13:26:19;4.03;;;2.25;;
21243;SDS011;10780;50.942;4.028;2023-07-13T13:28:46;4.57;;;2.13;;
21243;SDS011;10780;50.942;4.028;2023-07-13T13:31:13;4.47;;;2.40;;
21243;SDS011;10780;50.942;4.028;2023-07-13T13:33:40;5.07;;;2.30;;
21243;SDS011;10780;50.942;4.028;2023-07-13T13:36:15;3.28;;;2.20;;
21243;SDS011;10780;50.942;4.028;2023-07-13T13:38:47;5.88;;;2.08;;
21243;SDS011;10780;50.942;4.028;2023-07-13T13:41:15;5.35;;;2.50;;
21243;SDS011;10780;50.942;4.028;2023-07-13T13:43:41;2.80;;;1.95;;
21243;SDS011;10780;50.942;4.028;2023-07-13T13:46:12;2.90;;;1.90;;
21243;SDS011;10780;50.942;4.028;2023-07-13T13:48:43;5.82;;;2.40;;
21243;SDS011;10780;50.942;4.028;2023-07-13T13:51:13;6.00;;;2.42;;
21243;SDS011;10780;50.942;4.028;2023-07-13T13:53:44;3.67;;;2.17;;
21243;SDS011;10780;50.942;4.028;2023-07-13T13:56:11;4.85;;;2.55;;
21243;SDS011;10780;50.942;4.028;2023-07-13T13:58:37;5.38;;;2.40;;
21243;SDS011;10780;50.942;4.028;2023-07-13T14:01:03;6.57;;;2.33;;
21243;SDS011;10780;50.942;4.028;2023-07-13T14:03:33;3.35;;;2.08;;
21243;SDS011;10780;50.942;4.028;2023-07-13T14:05:59;3.65;;;2.28;;
21243;SDS011;10780;50.942;4.028;2023-07-13T14:08:25;7.03;;;2.83;;
21243;SDS011;10780;50.942;4.028;2023-07-13T14:10:52;3.92;;;2.08;;
21243;SDS011;10780;50.942;4.028;2023-07-13T14:15:47;3.70;;;2.10;;
21243;SDS011;10780;50.942;4.028;2023-07-13T14:18:13;4.60;;;2.40;;
21243;SDS011;10780;50.942;4.028;2023-07-13T14:20:43;4.30;;;2.10;;
21243;SDS011;10780;50.942;4.028;2023-07-13T14:23:10;2.72;;;2.13;;
21243;SDS011;10780;50.942;4.028;2023-07-13T14:25:37;4.25;;;2.03;;
21243;SDS011;10780;50.942;4.028;2023-07-13T14:28:04;3.60;;;1.85;;
21243;SDS011;10780;50.942;4.028;2023-07-13T14:30:47;2.70;;;1.80;;
21243;SDS011;10780;50.942;4.028;2023-07-13T14:33:13;2.85;;;1.73;;
21243;SDS011;10780;50.942;4.028;2023-07-13T14:35:39;2.20;;;1.52;;
21243;SDS011;10780;50.942;4.028;2023-07-13T14:38:05;4.28;;;1.90;;
21243;SDS011;10780;50.942;4.028;2023-07-13T14:40:35;3.13;;;1.90;;
21243;SDS011;10780;50.942;4.028;2023-07-13T14:43:01;2.25;;;1.75;;
21243;SDS011;10780;50.942;4.028;2023-07-13T14:45:26;2.35;;;1.45;;
21243;SDS011;10780;50.942;4.028;2023-07-13T14:47:55;3.58;;;1.92;;
21243;SDS011;10780;50.942;4.028;2023-07-13T14:50:30;5.13;;;1.83;;
21243;SDS011;10780;50.942;4.028;2023-07-13T14:52:57;2.58;;;1.90;;
21243;SDS011;10780;50.942;4.028;2023-07-13T14:55:23;3.47;;;1.83;;
21243;SDS011;10780;50.942;4.028;2023-07-13T14:57:51;2.13;;;1.77;;
21243;SDS011;10780;50.942;4.028;2023-07-13T15:00:20;2.33;;;1.63;;
21243;SDS011;10780;50.942;4.028;2023-07-13T15:02:48;5.78;;;1.85;;
21243;SDS011;10780;50.942;4.028;2023-07-13T15:05:20;3.47;;;1.70;;
21243;SDS011;10780;50.942;4.028;2023-07-13T15:07:51;3.63;;;1.80;;
21243;SDS011;10780;50.942;4.028;2023-07-13T15:10:25;2.75;;;1.63;;
21243;SDS011;10780;50.942;4.028;2023-07-13T15:12:52;3.72;;;1.80;;
21243;SDS011;10780;50.942;4.028;2023-07-13T15:15:23;3.38;;;1.80;;
21243;SDS011;10780;50.942;4.028;2023-07-13T15:17:48;2.13;;;1.48;;
21243;SDS011;10780;50.942;4.028;2023-07-13T15:23:00;3.33;;;1.63;;
21243;SDS011;10780;50.942;4.028;2023-07-13T15:25:27;2.40;;;1.80;;
21243;SDS011;10780;50.942;4.028;2023-07-13T15:27:55;3.45;;;1.70;;
21243;SDS011;10780;50.942;4.028;2023-07-13T15:30:22;3.38;;;2.35;;
21243;SDS011;10780;50.942;4.028;2023-07-13T15:32:50;3.70;;;2.05;;
21243;SDS011;10780;50.942;4.028;2023-07-13T15:35:17;4.72;;;1.88;;
21243;SDS011;10780;50.942;4.028;2023-07-13T15:37:47;2.80;;;1.60;;
21243;SDS011;10780;50.942;4.028;2023-07-13T15:40:14;3.03;;;1.58;;